sensor_id;sensor_type;location;lat;lon;timestamp;temperature;humidity
5938;DHT22;2994;51.220;4.412;2023-12-28T00:00:24;13.66;67.72
5938;DHT22;2994;51.220;4.412;2023-12-28T00:02:50;13.71;67.61
5938;DHT22;2994;51.220;4.412;2023-12-28T00:05:15;13.74;67.52
5938;DHT22;2994;51.220;4.412;2023-12-28T00:07:41;13.69;67.88
5938;DHT22;2994;51.220;4.412;2023-12-28T00:10:06;13.73;67.79
5938;DHT22;2994;51.220;4.412;2023-12-28T00:12:32;13.71;67.94
5938;DHT22;2994;51.220;4.412;2023-12-28T00:14:57;13.68;68.00
5938;DHT22;2994;51.220;4.412;2023-12-28T00:17:23;13.65;68.23
5938;DHT22;2994;51.220;4.412;2023-12-28T00:19:48;13.67;68.34
5938;DHT22;2994;51.220;4.412;2023-12-28T00:22:14;13.65;68.42
5938;DHT22;2994;51.220;4.412;2023-12-28T00:24:39;13.65;68.50
5938;DHT22;2994;51.220;4.412;2023-12-28T00:27:05;13.62;68.63
5938;DHT22;2994;51.220;4.412;2023-12-28T00:29:30;13.62;68.94
5938;DHT22;2994;51.220;4.412;2023-12-28T00:31:56;13.65;68.98
5938;DHT22;2994;51.220;4.412;2023-12-28T00:34:21;13.62;69.02
5938;DHT22;2994;51.220;4.412;2023-12-28T00:36:47;13.61;69.13
5938;DHT22;2994;51.220;4.412;2023-12-28T00:39:12;13.64;69.20
5938;DHT22;2994;51.220;4.412;2023-12-28T00:41:37;13.59;69.46
5938;DHT22;2994;51.220;4.412;2023-12-28T00:44:03;13.64;69.32
5938;DHT22;2994;51.220;4.412;2023-12-28T00:46:30;13.68;69.23
5938;DHT22;2994;51.220;4.412;2023-12-28T00:48:55;13.66;69.44
5938;DHT22;2994;51.220;4.412;2023-12-28T00:51:21;13.66;69.50
5938;DHT22;2994;51.220;4.412;2023-12-28T00:53:46;13.68;69.52
5938;DHT22;2994;51.220;4.412;2023-12-28T00:56:12;13.69;69.47
5938;DHT22;2994;51.220;4.412;2023-12-28T00:58:40;13.62;69.82
5938;DHT22;2994;51.220;4.412;2023-12-28T01:01:06;13.66;69.82
5938;DHT22;2994;51.220;4.412;2023-12-28T01:03:31;13.66;69.94
5938;DHT22;2994;51.220;4.412;2023-12-28T01:05:57;13.70;69.87
5938;DHT22;2994;51.220;4.412;2023-12-28T01:08:22;13.63;70.28
5938;DHT22;2994;51.220;4.412;2023-12-28T01:10:48;13.63;70.33
5938;DHT22;2994;51.220;4.412;2023-12-28T01:13:13;13.65;70.39
5938;DHT22;2994;51.220;4.412;2023-12-28T01:15:39;13.68;70.32
5938;DHT22;2994;51.220;4.412;2023-12-28T01:18:04;13.66;70.38
5938;DHT22;2994;51.220;4.412;2023-12-28T01:20:30;13.64;70.55
5938;DHT22;2994;51.220;4.412;2023-12-28T01:22:55;13.67;70.43
5938;DHT22;2994;51.220;4.412;2023-12-28T01:25:21;13.67;70.50
5938;DHT22;2994;51.220;4.412;2023-12-28T01:27:46;13.67;70.60
5938;DHT22;2994;51.220;4.412;2023-12-28T01:30:12;13.65;70.76
5938;DHT22;2994;51.220;4.412;2023-12-28T01:32:37;13.62;70.77
5938;DHT22;2994;51.220;4.412;2023-12-28T01:35:03;13.68;70.59
5938;DHT22;2994;51.220;4.412;2023-12-28T01:37:28;13.65;70.89
5938;DHT22;2994;51.220;4.412;2023-12-28T01:39:56;13.65;70.95
5938;DHT22;2994;51.220;4.412;2023-12-28T01:42:21;13.59;71.13
5938;DHT22;2994;51.220;4.412;2023-12-28T01:44:47;13.64;70.95
5938;DHT22;2994;51.220;4.412;2023-12-28T01:47:12;13.64;71.03
5938;DHT22;2994;51.220;4.412;2023-12-28T01:49:38;13.71;70.77
5938;DHT22;2994;51.220;4.412;2023-12-28T01:52:04;13.66;70.97
5938;DHT22;2994;51.220;4.412;2023-12-28T01:54:30;13.66;70.92
5938;DHT22;2994;51.220;4.412;2023-12-28T01:56:56;13.67;70.94
5938;DHT22;2994;51.220;4.412;2023-12-28T01:59:22;13.71;70.81
5938;DHT22;2994;51.220;4.412;2023-12-28T02:01:48;13.61;71.19
5938;DHT22;2994;51.220;4.412;2023-12-28T02:04:14;13.53;71.46
5938;DHT22;2994;51.220;4.412;2023-12-28T02:06:39;13.62;71.01
5938;DHT22;2994;51.220;4.412;2023-12-28T02:09:05;13.62;71.14
5938;DHT22;2994;51.220;4.412;2023-12-28T02:11:30;13.62;71.14
5938;DHT22;2994;51.220;4.412;2023-12-28T02:13:56;13.63;71.10
5938;DHT22;2994;51.220;4.412;2023-12-28T02:17:10;13.67;70.96
5938;DHT22;2994;51.220;4.412;2023-12-28T02:19:50;13.67;70.93
5938;DHT22;2994;51.220;4.412;2023-12-28T02:22:16;13.67;70.93
5938;DHT22;2994;51.220;4.412;2023-12-28T02:27:22;13.67;70.79
5938;DHT22;2994;51.220;4.412;2023-12-28T02:29:48;13.65;71.04
5938;DHT22;2994;51.220;4.412;2023-12-28T02:32:15;13.67;71.07
5938;DHT22;2994;51.220;4.412;2023-12-28T02:34:42;13.59;71.20
5938;DHT22;2994;51.220;4.412;2023-12-28T02:37:12;13.65;70.80
5938;DHT22;2994;51.220;4.412;2023-12-28T02:39:41;13.65;70.89
5938;DHT22;2994;51.220;4.412;2023-12-28T02:42:08;13.61;70.99
5938;DHT22;2994;51.220;4.412;2023-12-28T02:44:33;13.64;70.93
5938;DHT22;2994;51.220;4.412;2023-12-28T02:46:59;13.62;70.97
5938;DHT22;2994;51.220;4.412;2023-12-28T02:49:24;13.64;70.84
5938;DHT22;2994;51.220;4.412;2023-12-28T02:51:50;13.60;71.09
5938;DHT22;2994;51.220;4.412;2023-12-28T02:54:15;13.59;70.95
5938;DHT22;2994;51.220;4.412;2023-12-28T02:56:40;13.60;70.86
5938;DHT22;2994;51.220;4.412;2023-12-28T02:59:06;13.58;70.93
5938;DHT22;2994;51.220;4.412;2023-12-28T03:01:32;13.63;70.87
5938;DHT22;2994;51.220;4.412;2023-12-28T03:03:57;13.64;70.81
5938;DHT22;2994;51.220;4.412;2023-12-28T03:06:22;13.64;70.68
5938;DHT22;2994;51.220;4.412;2023-12-28T03:08:48;13.60;70.84
5938;DHT22;2994;51.220;4.412;2023-12-28T03:11:14;13.63;70.58
5938;DHT22;2994;51.220;4.412;2023-12-28T03:13:39;13.63;70.45
5938;DHT22;2994;51.220;4.412;2023-12-28T03:16:05;13.63;70.45
5938;DHT22;2994;51.220;4.412;2023-12-28T03:18:31;13.63;70.51
5938;DHT22;2994;51.220;4.412;2023-12-28T03:20:56;13.64;70.55
5938;DHT22;2994;51.220;4.412;2023-12-28T03:23:23;13.67;70.36
5938;DHT22;2994;51.220;4.412;2023-12-28T03:25:48;13.67;70.29
5938;DHT22;2994;51.220;4.412;2023-12-28T03:28:14;13.63;70.55
5938;DHT22;2994;51.220;4.412;2023-12-28T03:30:39;13.67;70.63
5938;DHT22;2994;51.220;4.412;2023-12-28T03:33:05;13.70;70.40
5938;DHT22;2994;51.220;4.412;2023-12-28T03:35:30;13.71;70.49
5938;DHT22;2994;51.220;4.412;2023-12-28T03:37:56;13.65;70.76
5938;DHT22;2994;51.220;4.412;2023-12-28T03:40:21;13.73;70.45
5938;DHT22;2994;51.220;4.412;2023-12-28T03:42:47;13.55;70.87
5938;DHT22;2994;51.220;4.412;2023-12-28T03:45:12;13.67;70.74
5938;DHT22;2994;51.220;4.412;2023-12-28T03:47:38;13.62;70.70
5938;DHT22;2994;51.220;4.412;2023-12-28T03:50:03;13.67;70.62
5938;DHT22;2994;51.220;4.412;2023-12-28T03:52:29;13.61;70.67
5938;DHT22;2994;51.220;4.412;2023-12-28T03:54:55;13.65;70.64
5938;DHT22;2994;51.220;4.412;2023-12-28T03:57:21;13.65;70.38
5938;DHT22;2994;51.220;4.412;2023-12-28T03:59:46;13.62;70.50
5938;DHT22;2994;51.220;4.412;2023-12-28T04:02:13;13.66;70.62
5938;DHT22;2994;51.220;4.412;2023-12-28T04:04:38;13.73;70.25
5938;DHT22;2994;51.220;4.412;2023-12-28T04:07:04;13.74;70.13
5938;DHT22;2994;51.220;4.412;2023-12-28T04:09:33;13.69;70.29
5938;DHT22;2994;51.220;4.412;2023-12-28T04:11:58;13.71;70.32
5938;DHT22;2994;51.220;4.412;2023-12-28T04:14:23;13.75;70.12
5938;DHT22;2994;51.220;4.412;2023-12-28T04:16:49;13.75;69.95
5938;DHT22;2994;51.220;4.412;2023-12-28T04:19:14;13.68;70.25
5938;DHT22;2994;51.220;4.412;2023-12-28T04:21:43;13.69;70.23
5938;DHT22;2994;51.220;4.412;2023-12-28T04:24:09;13.66;70.29
5938;DHT22;2994;51.220;4.412;2023-12-28T04:26:35;13.66;70.26
5938;DHT22;2994;51.220;4.412;2023-12-28T04:29:00;13.69;70.15
5938;DHT22;2994;51.220;4.412;2023-12-28T04:31:27;13.70;70.11
5938;DHT22;2994;51.220;4.412;2023-12-28T04:33:52;13.66;70.23
5938;DHT22;2994;51.220;4.412;2023-12-28T04:36:18;13.68;70.12
5938;DHT22;2994;51.220;4.412;2023-12-28T04:38:43;13.69;70.16
5938;DHT22;2994;51.220;4.412;2023-12-28T04:41:09;13.62;70.30
5938;DHT22;2994;51.220;4.412;2023-12-28T04:43:35;13.65;70.32
5938;DHT22;2994;51.220;4.412;2023-12-28T04:46:04;13.69;70.20
5938;DHT22;2994;51.220;4.412;2023-12-28T04:48:34;13.63;70.26
5938;DHT22;2994;51.220;4.412;2023-12-28T04:51:02;13.60;70.28
5938;DHT22;2994;51.220;4.412;2023-12-28T04:53:28;13.61;70.36
5938;DHT22;2994;51.220;4.412;2023-12-28T04:55:55;13.66;70.04
5938;DHT22;2994;51.220;4.412;2023-12-28T04:58:20;13.64;70.04
5938;DHT22;2994;51.220;4.412;2023-12-28T05:00:46;13.58;70.17
5938;DHT22;2994;51.220;4.412;2023-12-28T05:03:11;13.55;70.29
5938;DHT22;2994;51.220;4.412;2023-12-28T05:05:37;13.55;70.20
5938;DHT22;2994;51.220;4.412;2023-12-28T05:08:03;13.54;70.41
5938;DHT22;2994;51.220;4.412;2023-12-28T05:10:28;13.49;70.39
5938;DHT22;2994;51.220;4.412;2023-12-28T05:12:54;13.52;70.26
5938;DHT22;2994;51.220;4.412;2023-12-28T05:15:19;13.51;70.33
5938;DHT22;2994;51.220;4.412;2023-12-28T05:17:45;13.55;70.27
5938;DHT22;2994;51.220;4.412;2023-12-28T05:20:10;13.61;69.91
5938;DHT22;2994;51.220;4.412;2023-12-28T05:22:36;13.64;69.61
5938;DHT22;2994;51.220;4.412;2023-12-28T05:25:01;13.65;69.45
5938;DHT22;2994;51.220;4.412;2023-12-28T05:27:27;13.53;69.69
5938;DHT22;2994;51.220;4.412;2023-12-28T05:29:53;13.56;69.71
5938;DHT22;2994;51.220;4.412;2023-12-28T05:32:18;13.58;69.62
5938;DHT22;2994;51.220;4.412;2023-12-28T05:34:44;13.58;69.74
5938;DHT22;2994;51.220;4.412;2023-12-28T05:37:09;13.52;69.80
5938;DHT22;2994;51.220;4.412;2023-12-28T05:39:35;13.51;69.90
5938;DHT22;2994;51.220;4.412;2023-12-28T05:42:00;13.51;70.03
5938;DHT22;2994;51.220;4.412;2023-12-28T05:44:26;13.43;70.17
5938;DHT22;2994;51.220;4.412;2023-12-28T05:46:51;13.47;70.14
5938;DHT22;2994;51.220;4.412;2023-12-28T05:49:17;13.52;70.13
5938;DHT22;2994;51.220;4.412;2023-12-28T05:51:43;13.54;69.86
5938;DHT22;2994;51.220;4.412;2023-12-28T05:54:08;13.51;69.86
5938;DHT22;2994;51.220;4.412;2023-12-28T05:56:34;13.53;69.82
5938;DHT22;2994;51.220;4.412;2023-12-28T05:59:00;13.54;69.86
5938;DHT22;2994;51.220;4.412;2023-12-28T06:01:25;13.52;69.71
5938;DHT22;2994;51.220;4.412;2023-12-28T06:03:51;13.56;69.68
5938;DHT22;2994;51.220;4.412;2023-12-28T06:06:18;13.59;69.44
5938;DHT22;2994;51.220;4.412;2023-12-28T06:08:46;13.54;69.57
5938;DHT22;2994;51.220;4.412;2023-12-28T06:11:12;13.59;69.24
5938;DHT22;2994;51.220;4.412;2023-12-28T06:13:40;13.61;69.02
5938;DHT22;2994;51.220;4.412;2023-12-28T06:16:09;13.62;69.02
5938;DHT22;2994;51.220;4.412;2023-12-28T06:18:34;13.58;69.20
5938;DHT22;2994;51.220;4.412;2023-12-28T06:21:00;13.59;68.86
5938;DHT22;2994;51.220;4.412;2023-12-28T06:23:25;13.61;68.91
5938;DHT22;2994;51.220;4.412;2023-12-28T06:25:52;13.65;68.90
5938;DHT22;2994;51.220;4.412;2023-12-28T06:28:17;13.64;68.81
5938;DHT22;2994;51.220;4.412;2023-12-28T06:30:43;13.56;68.70
5938;DHT22;2994;51.220;4.412;2023-12-28T06:33:08;13.62;68.74
5938;DHT22;2994;51.220;4.412;2023-12-28T06:35:34;13.63;68.69
5938;DHT22;2994;51.220;4.412;2023-12-28T06:37:59;13.64;68.51
5938;DHT22;2994;51.220;4.412;2023-12-28T06:40:25;13.61;68.41
5938;DHT22;2994;51.220;4.412;2023-12-28T06:42:50;13.62;68.53
5938;DHT22;2994;51.220;4.412;2023-12-28T06:45:16;13.58;68.58
5938;DHT22;2994;51.220;4.412;2023-12-28T06:47:41;13.53;68.83
5938;DHT22;2994;51.220;4.412;2023-12-28T06:50:07;13.54;68.78
5938;DHT22;2994;51.220;4.412;2023-12-28T06:52:33;13.55;68.68
5938;DHT22;2994;51.220;4.412;2023-12-28T06:54:58;13.55;68.78
5938;DHT22;2994;51.220;4.412;2023-12-28T06:57:24;13.56;68.69
5938;DHT22;2994;51.220;4.412;2023-12-28T06:59:49;13.54;68.80
5938;DHT22;2994;51.220;4.412;2023-12-28T07:02:15;13.55;68.81
5938;DHT22;2994;51.220;4.412;2023-12-28T07:04:41;13.56;68.46
5938;DHT22;2994;51.220;4.412;2023-12-28T07:07:06;13.54;68.56
5938;DHT22;2994;51.220;4.412;2023-12-28T07:09:33;13.54;68.44
5938;DHT22;2994;51.220;4.412;2023-12-28T07:11:58;13.51;68.52
5938;DHT22;2994;51.220;4.412;2023-12-28T07:14:24;13.51;68.54
5938;DHT22;2994;51.220;4.412;2023-12-28T07:16:50;13.54;68.20
5938;DHT22;2994;51.220;4.412;2023-12-28T07:19:15;13.50;68.33
5938;DHT22;2994;51.220;4.412;2023-12-28T07:21:41;13.52;68.22
5938;DHT22;2994;51.220;4.412;2023-12-28T07:24:07;13.51;68.38
5938;DHT22;2994;51.220;4.412;2023-12-28T07:26:33;13.53;68.39
5938;DHT22;2994;51.220;4.412;2023-12-28T07:28:59;13.49;67.94
5938;DHT22;2994;51.220;4.412;2023-12-28T07:31:25;13.43;68.04
5938;DHT22;2994;51.220;4.412;2023-12-28T07:33:51;13.40;68.27
5938;DHT22;2994;51.220;4.412;2023-12-28T07:36:17;13.44;68.19
5938;DHT22;2994;51.220;4.412;2023-12-28T07:38:42;13.43;68.30
5938;DHT22;2994;51.220;4.412;2023-12-28T07:41:09;13.51;67.67
5938;DHT22;2994;51.220;4.412;2023-12-28T07:43:34;13.46;67.91
5938;DHT22;2994;51.220;4.412;2023-12-28T07:46:01;13.50;67.62
5938;DHT22;2994;51.220;4.412;2023-12-28T07:48:27;13.48;67.80
5938;DHT22;2994;51.220;4.412;2023-12-28T07:50:52;13.35;68.06
5938;DHT22;2994;51.220;4.412;2023-12-28T07:53:17;13.40;68.18
5938;DHT22;2994;51.220;4.412;2023-12-28T07:55:43;13.41;68.10
5938;DHT22;2994;51.220;4.412;2023-12-28T07:58:09;13.32;68.32
5938;DHT22;2994;51.220;4.412;2023-12-28T08:00:34;13.41;68.18
5938;DHT22;2994;51.220;4.412;2023-12-28T08:03:00;13.24;68.95
5938;DHT22;2994;51.220;4.412;2023-12-28T08:05:25;13.38;68.34
5938;DHT22;2994;51.220;4.412;2023-12-28T08:07:51;13.38;68.53
5938;DHT22;2994;51.220;4.412;2023-12-28T08:10:16;13.38;68.32
5938;DHT22;2994;51.220;4.412;2023-12-28T08:12:41;13.37;68.48
5938;DHT22;2994;51.220;4.412;2023-12-28T08:15:08;13.40;68.20
5938;DHT22;2994;51.220;4.412;2023-12-28T08:17:34;13.37;68.31
5938;DHT22;2994;51.220;4.412;2023-12-28T08:19:59;13.39;68.07
5938;DHT22;2994;51.220;4.412;2023-12-28T08:22:25;13.29;68.46
5938;DHT22;2994;51.220;4.412;2023-12-28T08:24:50;13.32;68.50
5938;DHT22;2994;51.220;4.412;2023-12-28T08:27:16;13.38;68.15
5938;DHT22;2994;51.220;4.412;2023-12-28T08:29:41;13.37;68.12
5938;DHT22;2994;51.220;4.412;2023-12-28T08:32:07;13.37;68.07
5938;DHT22;2994;51.220;4.412;2023-12-28T08:34:33;13.40;68.07
5938;DHT22;2994;51.220;4.412;2023-12-28T08:36:58;13.49;68.20
5938;DHT22;2994;51.220;4.412;2023-12-28T08:39:24;13.53;67.86
5938;DHT22;2994;51.220;4.412;2023-12-28T08:41:50;13.53;67.58
5938;DHT22;2994;51.220;4.412;2023-12-28T08:44:18;13.53;67.70
5938;DHT22;2994;51.220;4.412;2023-12-28T08:46:43;13.59;67.34
5938;DHT22;2994;51.220;4.412;2023-12-28T08:49:10;13.55;67.20
5938;DHT22;2994;51.220;4.412;2023-12-28T08:59:21;13.62;66.82
5938;DHT22;2994;51.220;4.412;2023-12-28T09:01:47;13.59;67.28
5938;DHT22;2994;51.220;4.412;2023-12-28T09:25:15;13.76;66.67
5938;DHT22;2994;51.220;4.412;2023-12-28T09:27:40;13.70;66.81
5938;DHT22;2994;51.220;4.412;2023-12-28T09:30:07;13.75;66.87
5938;DHT22;2994;51.220;4.412;2023-12-28T09:32:33;13.79;66.70
5938;DHT22;2994;51.220;4.412;2023-12-28T09:34:59;13.80;66.93
5938;DHT22;2994;51.220;4.412;2023-12-28T09:37:24;13.81;66.58
5938;DHT22;2994;51.220;4.412;2023-12-28T09:39:49;13.78;66.60
5938;DHT22;2994;51.220;4.412;2023-12-28T09:42:25;13.84;66.40
5938;DHT22;2994;51.220;4.412;2023-12-28T09:44:54;13.79;66.52
5938;DHT22;2994;51.220;4.412;2023-12-28T09:47:19;13.85;66.43
5938;DHT22;2994;51.220;4.412;2023-12-28T09:49:45;13.88;66.77
5938;DHT22;2994;51.220;4.412;2023-12-28T09:52:12;13.74;66.59
5938;DHT22;2994;51.220;4.412;2023-12-28T09:54:39;13.83;66.27
5938;DHT22;2994;51.220;4.412;2023-12-28T09:57:04;13.86;66.11
5938;DHT22;2994;51.220;4.412;2023-12-28T09:59:31;13.91;66.04
5938;DHT22;2994;51.220;4.412;2023-12-28T10:01:58;13.90;65.98
5938;DHT22;2994;51.220;4.412;2023-12-28T10:04:26;13.89;66.11
5938;DHT22;2994;51.220;4.412;2023-12-28T10:06:53;13.86;66.31
5938;DHT22;2994;51.220;4.412;2023-12-28T10:09:19;13.88;66.42
5938;DHT22;2994;51.220;4.412;2023-12-28T10:11:44;13.92;65.91
5938;DHT22;2994;51.220;4.412;2023-12-28T10:14:11;13.96;65.73
5938;DHT22;2994;51.220;4.412;2023-12-28T10:16:40;13.95;65.72
5938;DHT22;2994;51.220;4.412;2023-12-28T10:19:06;13.98;65.81
5938;DHT22;2994;51.220;4.412;2023-12-28T10:21:31;14.01;65.63
5938;DHT22;2994;51.220;4.412;2023-12-28T10:23:57;14.05;65.61
5938;DHT22;2994;51.220;4.412;2023-12-28T10:26:23;14.05;65.60
5938;DHT22;2994;51.220;4.412;2023-12-28T10:28:49;14.00;65.82
5938;DHT22;2994;51.220;4.412;2023-12-28T10:31:15;14.08;65.18
5938;DHT22;2994;51.220;4.412;2023-12-28T10:33:41;14.05;65.14
5938;DHT22;2994;51.220;4.412;2023-12-28T10:36:08;14.07;65.13
5938;DHT22;2994;51.220;4.412;2023-12-28T10:38:35;14.09;65.18
5938;DHT22;2994;51.220;4.412;2023-12-28T10:41:04;14.09;65.36
5938;DHT22;2994;51.220;4.412;2023-12-28T10:43:45;14.08;65.35
5938;DHT22;2994;51.220;4.412;2023-12-28T10:46:14;14.10;65.31
5938;DHT22;2994;51.220;4.412;2023-12-28T10:48:46;14.09;65.16
5938;DHT22;2994;51.220;4.412;2023-12-28T10:51:13;13.97;65.67
5938;DHT22;2994;51.220;4.412;2023-12-28T10:53:49;14.07;65.15
5938;DHT22;2994;51.220;4.412;2023-12-28T10:56:31;14.05;65.21
5938;DHT22;2994;51.220;4.412;2023-12-28T11:01:40;14.06;65.56
5938;DHT22;2994;51.220;4.412;2023-12-28T11:09:41;14.10;65.68
5938;DHT22;2994;51.220;4.412;2023-12-28T11:12:08;13.97;65.72
5938;DHT22;2994;51.220;4.412;2023-12-28T11:14:45;14.05;65.89
5938;DHT22;2994;51.220;4.412;2023-12-28T11:17:16;14.12;65.62
5938;DHT22;2994;51.220;4.412;2023-12-28T11:19:42;14.13;65.65
5938;DHT22;2994;51.220;4.412;2023-12-28T11:22:08;14.20;65.68
5938;DHT22;2994;51.220;4.412;2023-12-28T11:24:34;14.19;65.70
5938;DHT22;2994;51.220;4.412;2023-12-28T11:27:00;14.25;65.61
5938;DHT22;2994;51.220;4.412;2023-12-28T11:29:29;14.14;65.99
5938;DHT22;2994;51.220;4.412;2023-12-28T11:32:00;14.24;65.72
5938;DHT22;2994;51.220;4.412;2023-12-28T11:34:29;14.29;65.24
5938;DHT22;2994;51.220;4.412;2023-12-28T11:36:56;14.27;65.54
5938;DHT22;2994;51.220;4.412;2023-12-28T11:39:33;14.30;65.39
5938;DHT22;2994;51.220;4.412;2023-12-28T11:42:02;14.32;65.33
5938;DHT22;2994;51.220;4.412;2023-12-28T11:44:39;14.35;65.11
5938;DHT22;2994;51.220;4.412;2023-12-28T11:47:12;14.26;65.12
5938;DHT22;2994;51.220;4.412;2023-12-28T11:49:38;14.26;65.35
5938;DHT22;2994;51.220;4.412;2023-12-28T11:52:06;14.28;65.17
5938;DHT22;2994;51.220;4.412;2023-12-28T11:54:32;14.28;65.39
5938;DHT22;2994;51.220;4.412;2023-12-28T11:56:57;14.34;65.31
5938;DHT22;2994;51.220;4.412;2023-12-28T11:59:23;14.37;65.44
5938;DHT22;2994;51.220;4.412;2023-12-28T12:01:52;14.37;65.39
5938;DHT22;2994;51.220;4.412;2023-12-28T12:04:19;14.40;65.27
5938;DHT22;2994;51.220;4.412;2023-12-28T12:06:47;14.42;65.40
5938;DHT22;2994;51.220;4.412;2023-12-28T12:09:14;14.34;65.42
5938;DHT22;2994;51.220;4.412;2023-12-28T12:11:40;14.38;65.14
5938;DHT22;2994;51.220;4.412;2023-12-28T12:14:09;14.45;65.14
5938;DHT22;2994;51.220;4.412;2023-12-28T12:16:36;14.38;65.16
5938;DHT22;2994;51.220;4.412;2023-12-28T12:19:06;14.48;65.01
5938;DHT22;2994;51.220;4.412;2023-12-28T12:21:34;14.47;65.08
5938;DHT22;2994;51.220;4.412;2023-12-28T12:24:00;14.45;65.30
5938;DHT22;2994;51.220;4.412;2023-12-28T12:31:40;14.52;64.97
5938;DHT22;2994;51.220;4.412;2023-12-28T12:34:17;14.52;64.72
5938;DHT22;2994;51.220;4.412;2023-12-28T12:36:46;14.50;64.90
5938;DHT22;2994;51.220;4.412;2023-12-28T12:39:14;14.51;65.00
5938;DHT22;2994;51.220;4.412;2023-12-28T12:41:42;14.53;65.00
5938;DHT22;2994;51.220;4.412;2023-12-28T12:44:10;14.51;65.04
5938;DHT22;2994;51.220;4.412;2023-12-28T12:46:42;14.51;65.12
5938;DHT22;2994;51.220;4.412;2023-12-28T12:49:08;14.47;65.12
5938;DHT22;2994;51.220;4.412;2023-12-28T12:51:37;14.48;65.13
5938;DHT22;2994;51.220;4.412;2023-12-28T12:54:07;14.51;64.92
5938;DHT22;2994;51.220;4.412;2023-12-28T12:56:35;14.48;65.01
5938;DHT22;2994;51.220;4.412;2023-12-28T12:59:08;14.50;65.18
5938;DHT22;2994;51.220;4.412;2023-12-28T13:01:43;14.51;65.22
5938;DHT22;2994;51.220;4.412;2023-12-28T13:04:12;14.53;65.12
5938;DHT22;2994;51.220;4.412;2023-12-28T13:06:40;14.53;64.97
5938;DHT22;2994;51.220;4.412;2023-12-28T13:09:09;14.55;64.79
5938;DHT22;2994;51.220;4.412;2023-12-28T13:11:42;14.52;65.07
5938;DHT22;2994;51.220;4.412;2023-12-28T13:14:29;14.42;65.14
5938;DHT22;2994;51.220;4.412;2023-12-28T13:16:55;14.40;64.99
5938;DHT22;2994;51.220;4.412;2023-12-28T13:19:23;14.41;64.95
5938;DHT22;2994;51.220;4.412;2023-12-28T13:24:37;14.42;64.50
5938;DHT22;2994;51.220;4.412;2023-12-28T13:27:13;14.37;64.39
5938;DHT22;2994;51.220;4.412;2023-12-28T13:37:35;14.37;64.72
5938;DHT22;2994;51.220;4.412;2023-12-28T13:40:03;14.43;64.43
5938;DHT22;2994;51.220;4.412;2023-12-28T13:42:32;14.42;64.54
5938;DHT22;2994;51.220;4.412;2023-12-28T13:44:58;14.48;64.52
5938;DHT22;2994;51.220;4.412;2023-12-28T13:52:34;14.51;64.04
5938;DHT22;2994;51.220;4.412;2023-12-28T13:55:00;14.53;64.10
5938;DHT22;2994;51.220;4.412;2023-12-28T13:57:25;14.48;64.07
5938;DHT22;2994;51.220;4.412;2023-12-28T13:59:54;14.51;63.95
5938;DHT22;2994;51.220;4.412;2023-12-28T14:02:27;14.47;64.11
5938;DHT22;2994;51.220;4.412;2023-12-28T14:04:55;14.39;64.30
5938;DHT22;2994;51.220;4.412;2023-12-28T14:07:23;14.42;64.19
5938;DHT22;2994;51.220;4.412;2023-12-28T14:09:50;14.45;64.53
5938;DHT22;2994;51.220;4.412;2023-12-28T14:14:52;14.50;63.89
5938;DHT22;2994;51.220;4.412;2023-12-28T14:17:20;14.37;64.34
5938;DHT22;2994;51.220;4.412;2023-12-28T14:19:46;14.49;64.13
5938;DHT22;2994;51.220;4.412;2023-12-28T14:22:17;14.50;64.24
5938;DHT22;2994;51.220;4.412;2023-12-28T14:24:42;14.49;63.94
5938;DHT22;2994;51.220;4.412;2023-12-28T14:27:08;14.49;63.70
5938;DHT22;2994;51.220;4.412;2023-12-28T14:29:37;14.50;63.82
5938;DHT22;2994;51.220;4.412;2023-12-28T14:32:03;14.50;63.82
5938;DHT22;2994;51.220;4.412;2023-12-28T14:34:28;14.45;64.14
5938;DHT22;2994;51.220;4.412;2023-12-28T14:36:56;14.55;63.28
5938;DHT22;2994;51.220;4.412;2023-12-28T14:39:22;14.50;63.23
5938;DHT22;2994;51.220;4.412;2023-12-28T14:41:48;14.38;63.63
5938;DHT22;2994;51.220;4.412;2023-12-28T14:44:13;14.44;63.45
5938;DHT22;2994;51.220;4.412;2023-12-28T14:46:39;14.40;63.58
5938;DHT22;2994;51.220;4.412;2023-12-28T14:49:04;14.44;63.11
5938;DHT22;2994;51.220;4.412;2023-12-28T14:51:30;14.37;63.24
5938;DHT22;2994;51.220;4.412;2023-12-28T14:53:56;14.35;63.29
5938;DHT22;2994;51.220;4.412;2023-12-28T14:56:21;14.37;62.82
5938;DHT22;2994;51.220;4.412;2023-12-28T14:58:47;14.27;63.07
5938;DHT22;2994;51.220;4.412;2023-12-28T15:01:17;14.18;63.31
5938;DHT22;2994;51.220;4.412;2023-12-28T15:03:45;14.24;63.40
5938;DHT22;2994;51.220;4.412;2023-12-28T15:06:11;14.28;63.18
5938;DHT22;2994;51.220;4.412;2023-12-28T15:08:36;14.26;63.42
5938;DHT22;2994;51.220;4.412;2023-12-28T15:11:02;14.29;63.43
5938;DHT22;2994;51.220;4.412;2023-12-28T15:13:28;14.25;63.15
5938;DHT22;2994;51.220;4.412;2023-12-28T15:15:54;14.25;63.64
5938;DHT22;2994;51.220;4.412;2023-12-28T15:18:20;14.27;63.26
5938;DHT22;2994;51.220;4.412;2023-12-28T15:20:46;14.25;63.47
5938;DHT22;2994;51.220;4.412;2023-12-28T15:23:12;14.27;63.15
5938;DHT22;2994;51.220;4.412;2023-12-28T15:25:38;14.25;63.08
5938;DHT22;2994;51.220;4.412;2023-12-28T15:28:03;14.30;62.79
5938;DHT22;2994;51.220;4.412;2023-12-28T15:30:29;14.29;62.87
5938;DHT22;2994;51.220;4.412;2023-12-28T15:32:54;14.24;63.02
5938;DHT22;2994;51.220;4.412;2023-12-28T15:35:20;14.18;63.11
5938;DHT22;2994;51.220;4.412;2023-12-28T15:37:45;14.25;62.79
5938;DHT22;2994;51.220;4.412;2023-12-28T15:40:11;14.15;63.53
5938;DHT22;2994;51.220;4.412;2023-12-28T15:42:36;14.25;62.57
5938;DHT22;2994;51.220;4.412;2023-12-28T15:45:02;14.12;63.02
5938;DHT22;2994;51.220;4.412;2023-12-28T15:47:28;14.14;63.13
5938;DHT22;2994;51.220;4.412;2023-12-28T15:49:54;14.15;63.24
5938;DHT22;2994;51.220;4.412;2023-12-28T15:52:20;14.10;63.07
5938;DHT22;2994;51.220;4.412;2023-12-28T15:54:46;14.12;63.07
5938;DHT22;2994;51.220;4.412;2023-12-28T15:57:11;14.12;62.92
5938;DHT22;2994;51.220;4.412;2023-12-28T15:59:37;14.11;62.82
5938;DHT22;2994;51.220;4.412;2023-12-28T16:02:02;14.15;62.59
5938;DHT22;2994;51.220;4.412;2023-12-28T16:04:28;14.14;62.86
5938;DHT22;2994;51.220;4.412;2023-12-28T16:06:53;14.14;62.41
5938;DHT22;2994;51.220;4.412;2023-12-28T16:09:18;14.04;62.60
5938;DHT22;2994;51.220;4.412;2023-12-28T16:11:44;14.03;62.86
5938;DHT22;2994;51.220;4.412;2023-12-28T16:14:09;14.07;63.14
5938;DHT22;2994;51.220;4.412;2023-12-28T16:16:35;14.09;62.72
5938;DHT22;2994;51.220;4.412;2023-12-28T16:19:02;14.11;62.63
5938;DHT22;2994;51.220;4.412;2023-12-28T16:21:29;14.17;62.44
5938;DHT22;2994;51.220;4.412;2023-12-28T16:23:57;14.10;62.48
5938;DHT22;2994;51.220;4.412;2023-12-28T16:26:22;14.08;62.86
5938;DHT22;2994;51.220;4.412;2023-12-28T16:28:48;13.99;63.05
5938;DHT22;2994;51.220;4.412;2023-12-28T16:31:13;14.05;62.58
5938;DHT22;2994;51.220;4.412;2023-12-28T16:33:39;14.08;62.76
5938;DHT22;2994;51.220;4.412;2023-12-28T16:36:04;14.17;62.11
5938;DHT22;2994;51.220;4.412;2023-12-28T16:38:29;14.14;62.24
5938;DHT22;2994;51.220;4.412;2023-12-28T16:40:55;14.09;62.44
5938;DHT22;2994;51.220;4.412;2023-12-28T16:43:22;14.06;62.70
5938;DHT22;2994;51.220;4.412;2023-12-28T16:45:49;14.00;63.31
5938;DHT22;2994;51.220;4.412;2023-12-28T16:48:14;14.03;62.74
5938;DHT22;2994;51.220;4.412;2023-12-28T16:50:40;14.07;62.89
5938;DHT22;2994;51.220;4.412;2023-12-28T16:53:06;14.12;62.63
5938;DHT22;2994;51.220;4.412;2023-12-28T16:55:32;14.15;62.36
5938;DHT22;2994;51.220;4.412;2023-12-28T16:57:57;14.14;62.10
5938;DHT22;2994;51.220;4.412;2023-12-28T17:00:23;14.10;62.58